This is the latest recevied weather packets stored in our database for station/object WA1RYQ. If no packets are shown the sender has not sent any weather packets the latest 10 day(s).
| Time | Temp. | Humidity | Pressure | Rain* | Wind** | Luminosity | Snow |
|---|---|---|---|---|---|---|---|
| 1777392056 | 29.44° C | 56% | 1019.9 hPa | 0 mm | - | 872 W/m² | - |
| 1777391134 | 28.33° C | 59% | 1020.1 hPa | 0 mm | - | 833 W/m² | - |
| 1777390851 | 28.89° C | 57% | 1020.2 hPa | 0 mm | - | 828 W/m² | - |
| 1777386046 | 25.56° C | 68% | 1020 hPa | 0 mm | - | 629 W/m² | - |
| 1777385132 | 25.56° C | 70% | 1019.9 hPa | 0 mm | - | 584 W/m² | - |
| 1777379444 | 21.67° C | 82% | 1019.5 hPa | 0 mm | - | 257 W/m² | - |
| 1777378808 | 21.11° C | 83% | 1019.4 hPa | 0 mm | - | 220 W/m² | - |
| 1777378526 | 21.11° C | 83% | 1019.4 hPa | 0 mm | - | 199 W/m² | - |
| 1777377958 | 20.56° C | 85% | 1019.4 hPa | 0 mm | - | 156 W/m² | - |
| 1777377611 | 20.56° C | 86% | 1019.3 hPa | 0 mm | - | 134 W/m² | - |
| 1777376160 | 19.44° C | 87% | 1019 hPa | 0 mm | - | 30 W/m² | - |
| 1777374633 | 19.44° C | 87% | 1018.8 hPa | 0 mm | - | 14 W/m² | - |
| 1777373449 | 19.44° C | 86% | 1018.5 hPa | 0 mm | - | 0 W/m² | - |
| 1777373113 | 19.44° C | 86% | 1018.5 hPa | 0 mm | - | 0 W/m² | - |
| 1777371306 | 20° C | 86% | 1018.2 hPa | 0 mm | - | 0 W/m² | - |
| 1777371029 | 20° C | 86% | 1018.2 hPa | 0 mm | - | 0 W/m² | - |
| 1777370748 | 20° C | 86% | 1018.1 hPa | 0 mm | - | 0 W/m² | - |
| 1777370124 | 20° C | 86% | 1018.2 hPa | 0 mm | - | 0 W/m² | - |
| 1777367148 | 20° C | 85% | 1018 hPa | 0 mm | - | 0 W/m² | - |
| 1777365925 | 20.56° C | 85% | 1017.9 hPa | 0 mm | - | 0 W/m² | - |
| 1777365301 | 20.56° C | 85% | 1017.8 hPa | 0 mm | - | 0 W/m² | - |
| 1777364458 | 20.56° C | 85% | 1017.8 hPa | 0 mm | - | 0 W/m² | - |
| 1777363837 | 20.56° C | 84% | 1017.7 hPa | 0 mm | - | 0 W/m² | - |
| 1777360230 | 21.11° C | 82% | 1018 hPa | 0 mm | - | 0 W/m² | - |
| 1777359953 | 21.11° C | 82% | 1018 hPa | 0 mm | - | 0 W/m² | - |
* Rain latest hour (hover to see other rain measurements)
** Current wind speed in m/s (hover to see current wind gust speed)